Time;durP1;ratioP1;P1;durP2;ratioP2;P2;SDS_P1;SDS_P2;PMS_P1;PMS_P2;Temp;Humidity;BMP_temperature;BMP_pressure;BME280_temperature;BME280_humidity;BME280_pressure;Samples;Min_cycle;Max_cycle;Signal;HPM_P1;HPM_P2
2023/03/28 00:06:52;;;;;;;6.10;3.47;;;;;;;;;;4973563;23;20064;-95
2023/03/28 00:09:19;;;;;;;8.98;3.78;;;;;;;;;;5201791;23;20112;-94
2023/03/28 00:22:16;;;;;;;8.95;4.60;;;;;;;;;;5315552;23;20986;-95
2023/03/28 00:24:42;;;;;;;8.48;5.15;;;;;;;;;;5482225;23;20506;-96
2023/03/28 00:33:04;;;;;;;8.25;5.15;;;;;;;;;;5294340;23;20109;-95
2023/03/28 00:35:44;;;;;;;10.63;5.88;;;;;;;;;;4997226;23;20109;-95
2023/03/28 00:38:16;;;;;;;9.52;5.43;;;;;;;;;;5123182;23;20371;-94
2023/03/28 00:40:44;;;;;;;9.23;5.50;;;;;;;;;;4875966;29;20507;-96
2023/03/28 00:43:15;;;;;;;10.55;6.38;;;;;;;;;;5389306;23;20336;-93
2023/03/28 00:45:45;;;;;;;9.63;6.07;;;;;;;;;;4873459;29;20083;-93
2023/03/28 00:48:14;;;;;;;11.13;6.57;;;;;;;;;;4875317;29;20052;-96
2023/03/28 00:50:47;;;;;;;10.95;6.63;;;;;;;;;;4875137;29;20077;-96
2023/03/28 00:53:15;;;;;;;10.77;6.88;;;;;;;;;;4973497;23;20103;-96
2023/03/28 00:58:26;;;;;;;10.63;6.40;;;;;;;;;;5185806;23;20140;-93
2023/03/28 01:00:57;;;;;;;11.00;6.35;;;;;;;;;;5103640;23;20036;-93
2023/03/28 01:03:26;;;;;;;10.95;6.93;;;;;;;;;;4893739;29;20028;-95
2023/03/28 01:05:53;;;;;;;11.15;6.55;;;;;;;;;;5010257;23;20068;-95
2023/03/28 01:08:23;;;;;;;9.40;6.47;;;;;;;;;;4987094;23;20061;-96
2023/03/28 01:10:50;;;;;;;10.45;6.47;;;;;;;;;;5391426;23;20085;-95
2023/03/28 01:13:18;;;;;;;11.07;6.65;;;;;;;;;;5097575;23;20026;-95
2023/03/28 01:15:44;;;;;;;13.00;6.47;;;;;;;;;;5135194;23;20048;-96
2023/03/28 01:18:11;;;;;;;9.00;6.30;;;;;;;;;;4892030;29;20408;-94
2023/03/28 01:23:54;;;;;;;8.80;5.25;;;;;;;;;;5170845;23;20060;-95
2023/03/28 01:32:18;;;;;;;9.02;5.38;;;;;;;;;;5269417;23;20031;-94
2023/03/28 01:35:10;;;;;;;8.05;5.00;;;;;;;;;;5142808;23;20044;-94
2023/03/28 01:40:37;;;;;;;7.18;4.43;;;;;;;;;;5099198;23;20056;-96
2023/03/28 01:43:22;;;;;;;8.32;5.10;;;;;;;;;;5248394;23;21136;-92
2023/03/28 01:46:07;;;;;;;8.05;5.22;;;;;;;;;;4973212;23;20064;-96
2023/03/28 01:48:54;;;;;;;9.63;5.63;;;;;;;;;;4927600;23;20057;-96
2023/03/28 01:54:07;;;;;;;9.95;5.22;;;;;;;;;;5681359;23;20423;-93
2023/03/28 01:59:52;;;;;;;7.22;4.55;;;;;;;;;;5226598;23;20023;-95
2023/03/28 02:02:22;;;;;;;9.77;4.95;;;;;;;;;;5340198;23;20059;-95
2023/03/28 02:15:25;;;;;;;7.55;4.72;;;;;;;;;;5386250;23;20060;-95
2023/03/28 02:20:31;;;;;;;6.63;4.05;;;;;;;;;;5807520;23;20085;-92
2023/03/28 02:25:35;;;;;;;6.65;3.75;;;;;;;;;;5429154;23;20100;-94
2023/03/28 02:28:09;;;;;;;7.70;4.10;;;;;;;;;;4877883;29;20037;-95
2023/03/28 02:30:40;;;;;;;;;;;;;;;;;;4957911;23;20108;-93
2023/03/28 02:33:26;;;;;;;6.03;3.85;;;;;;;;;;4901575;29;19896;-95
2023/03/28 02:36:14;;;;;;;4.97;3.45;;;;;;;;;;4912212;29;20176;-94
2023/03/28 02:49:34;;;;;;;5.93;3.28;;;;;;;;;;4958979;23;20076;-94
2023/03/28 02:52:24;;;;;;;6.90;3.55;;;;;;;;;;4982728;23;20053;-96
2023/03/28 02:55:16;;;;;;;8.43;3.50;;;;;;;;;;5090585;23;20067;-95
2023/03/28 02:57:54;;;;;;;5.80;3.50;;;;;;;;;;5064609;23;22032;-94
2023/03/28 03:03:00;;;;;;;7.15;3.50;;;;;;;;;;5187584;23;20053;-96
2023/03/28 03:05:35;;;;;;;10.77;3.85;;;;;;;;;;4875729;29;20013;-96
2023/03/28 03:08:02;;;;;;;4.85;3.40;;;;;;;;;;5141287;23;20051;-95
2023/03/28 03:10:33;;;;;;;7.80;3.40;;;;;;;;;;5042579;23;20037;-94
2023/03/28 03:13:08;;;;;;;6.30;3.60;;;;;;;;;;4887186;29;20056;-95
2023/03/28 03:15:41;;;;;;;5.32;2.97;;;;;;;;;;4969069;23;20121;-96
2023/03/28 03:18:13;;;;;;;4.80;2.90;;;;;;;;;;4885061;29;20041;-94
2023/03/28 03:20:44;;;;;;;6.68;3.25;;;;;;;;;;5367690;23;20041;-96
2023/03/28 03:23:19;;;;;;;7.72;3.28;;;;;;;;;;4890570;29;20030;-96
2023/03/28 03:25:49;;;;;;;5.90;3.13;;;;;;;;;;4873069;29;20080;-95
2023/03/28 03:28:21;;;;;;;5.00;3.17;;;;;;;;;;4875104;29;20052;-95
2023/03/28 03:33:23;;;;;;;8.55;3.30;;;;;;;;;;5217033;23;20077;-94
2023/03/28 03:35:50;;;;;;;5.47;3.08;;;;;;;;;;5270926;23;20063;-95
2023/03/28 03:38:17;;;;;;;7.15;3.25;;;;;;;;;;4895882;29;20049;-95
2023/03/28 03:40:48;;;;;;;5.18;2.90;;;;;;;;;;4895277;29;20024;-96
2023/03/28 03:43:20;;;;;;;5.97;3.40;;;;;;;;;;5141935;23;20037;-95
2023/03/28 03:45:53;;;;;;;4.90;3.17;;;;;;;;;;4964474;23;20084;-95
2023/03/28 03:50:53;;;;;;;6.03;2.78;;;;;;;;;;5127494;23;20037;-96
2023/03/28 03:58:34;;;;;;;4.00;2.47;;;;;;;;;;5071942;23;20068;-96
2023/03/28 05:43:54;;;;;;;3.83;1.50;;;;;;;;;;4881255;23;20060;-90
2023/03/28 05:46:23;;;;;;;4.97;1.80;;;;;;;;;;4864839;29;20036;-89
2023/03/28 05:48:50;;;;;;;4.03;1.80;;;;;;;;;;4864327;29;20036;-92
2023/03/28 05:51:22;;;;;;;4.40;1.77;;;;;;;;;;4865686;29;20118;-90
2023/03/28 05:54:00;;;;;;;4.88;1.98;;;;;;;;;;4876668;29;20077;-90
2023/03/28 05:56:34;;;;;;;3.58;1.63;;;;;;;;;;4884692;29;20032;-91
2023/03/28 05:59:03;;;;;;;3.17;1.40;;;;;;;;;;4873870;29;20409;-92
2023/03/28 06:01:30;;;;;;;4.05;1.70;;;;;;;;;;4864875;29;20060;-89
2023/03/28 06:03:57;;;;;;;4.45;1.90;;;;;;;;;;4864772;29;20089;-91
2023/03/28 06:06:35;;;;;;;5.80;2.10;;;;;;;;;;4867720;29;20127;-89
2023/03/28 06:09:01;;;;;;;20.25;2.08;;;;;;;;;;4865587;29;20040;-92
2023/03/28 06:11:31;;;;;;;3.30;1.40;;;;;;;;;;4848866;29;20088;-94
2023/03/28 06:13:57;;;;;;;3.67;1.40;;;;;;;;;;4864455;29;20037;-91
2023/03/28 06:16:29;;;;;;;4.00;1.30;;;;;;;;;;4864253;29;20119;-94
2023/03/28 06:18:58;;;;;;;3.20;1.30;;;;;;;;;;4864835;29;20178;-93
2023/03/28 06:21:30;;;;;;;4.82;1.70;;;;;;;;;;4864208;29;20021;-93
2023/03/28 06:23:56;;;;;;;5.03;1.55;;;;;;;;;;4864414;29;20563;-92
2023/03/28 06:26:25;;;;;;;3.35;1.38;;;;;;;;;;4864167;29;20025;-94
2023/03/28 06:28:54;;;;;;;3.10;1.33;;;;;;;;;;4863724;29;20029;-93
2023/03/28 06:33:56;;;;;;;3.13;1.33;;;;;;;;;;4891215;23;20548;-93
2023/03/28 06:36:42;;;;;;;3.42;1.30;;;;;;;;;;4863911;29;20074;-93
2023/03/28 06:42:31;;;;;;;5.50;1.10;;;;;;;;;;4896947;23;20345;-92
2023/03/28 06:45:03;;;;;;;2.30;1.00;;;;;;;;;;4863754;29;20029;-92
2023/03/28 06:47:41;;;;;;;4.65;1.10;;;;;;;;;;4855847;29;20044;-93
2023/03/28 06:50:39;;;;;;;2.83;1.00;;;;;;;;;;4860391;29;20041;-91
2023/03/28 06:53:05;;;;;;;4.18;0.75;;;;;;;;;;4859815;29;20483;-91
2023/03/28 06:58:23;;;;;;;3.80;0.90;;;;;;;;;;4857234;29;20500;-92
2023/03/28 07:00:55;;;;;;;2.10;0.93;;;;;;;;;;4863035;29;20128;-91
2023/03/28 07:03:21;;;;;;;3.53;1.08;;;;;;;;;;4864345;29;20111;-92
2023/03/28 07:05:47;;;;;;;3.65;0.98;;;;;;;;;;4889367;29;20041;-92
2023/03/28 07:08:22;;;;;;;6.15;1.02;;;;;;;;;;4887091;29;20085;-91
2023/03/28 07:10:57;;;;;;;3.75;0.90;;;;;;;;;;4889879;29;20096;-90
2023/03/28 07:13:28;;;;;;;10.40;1.38;;;;;;;;;;4893032;29;20025;-91
2023/03/28 07:16:17;;;;;;;3.78;1.30;;;;;;;;;;4888226;29;20049;-95
2023/03/28 07:18:54;;;;;;;2.95;0.90;;;;;;;;;;4889474;29;20041;-91
2023/03/28 07:21:21;;;;;;;3.08;1.08;;;;;;;;;;4886213;29;20062;-90
2023/03/28 07:23:50;;;;;;;2.70;0.90;;;;;;;;;;4867629;29;20061;-91
2023/03/28 07:26:26;;;;;;;2.38;1.00;;;;;;;;;;4866691;29;20129;-91
2023/03/28 07:29:02;;;;;;;3.75;1.40;;;;;;;;;;4867204;29;20486;-91
2023/03/28 07:31:37;;;;;;;3.78;0.85;;;;;;;;;;4867115;29;20112;-91
2023/03/28 07:34:04;;;;;;;3.58;1.20;;;;;;;;;;4866994;29;20033;-91
2023/03/28 07:41:44;;;;;;;4.47;0.95;;;;;;;;;;4863969;29;20133;-90
2023/03/28 07:44:13;;;;;;;3.30;0.88;;;;;;;;;;4849472;29;20459;-91
2023/03/28 07:46:42;;;;;;;4.57;1.38;;;;;;;;;;4854755;29;20022;-91
2023/03/28 07:49:16;;;;;;;3.13;1.00;;;;;;;;;;4869801;29;20037;-90
2023/03/28 07:51:42;;;;;;;4.63;1.00;;;;;;;;;;4884979;29;20062;-90
2023/03/28 07:54:16;;;;;;;3.83;0.90;;;;;;;;;;4866803;29;20112;-91
2023/03/28 07:56:43;;;;;;;4.72;0.80;;;;;;;;;;4870944;29;20430;-89
2023/03/28 07:59:15;;;;;;;3.92;1.10;;;;;;;;;;4880347;29;20064;-90
2023/03/28 08:01:45;;;;;;;2.13;0.93;;;;;;;;;;4880609;29;20033;-93
2023/03/28 08:04:18;;;;;;;2.78;0.73;;;;;;;;;;4881179;29;20045;-92
2023/03/28 08:06:47;;;;;;;3.97;1.05;;;;;;;;;;4880142;29;20046;-92
2023/03/28 08:09:17;;;;;;;3.47;0.93;;;;;;;;;;4880482;29;20041;-92
2023/03/28 08:11:47;;;;;;;3.10;1.20;;;;;;;;;;4879965;29;20441;-93
2023/03/28 08:14:19;;;;;;;6.80;1.40;;;;;;;;;;4844839;29;20044;-92
2023/03/28 08:16:51;;;;;;;5.13;1.50;;;;;;;;;;4829665;29;20602;-93
2023/03/28 08:19:45;;;;;;;4.45;1.30;;;;;;;;;;4830075;29;20359;-95
2023/03/28 08:22:38;;;;;;;3.38;1.55;;;;;;;;;;4838090;29;20037;-94
2023/03/28 08:41:32;;;;;;;2.58;1.00;;;;;;;;;;4887762;29;20065;-96
2023/03/28 08:44:04;;;;;;;2.30;1.33;;;;;;;;;;4870945;29;20029;-95
2023/03/28 08:46:54;;;;;;;2.67;1.10;;;;;;;;;;4866742;29;20037;-94
2023/03/28 08:52:49;;;;;;;2.95;1.30;;;;;;;;;;4865685;29;20052;-92
2023/03/28 08:55:26;;;;;;;2.97;0.95;;;;;;;;;;4850594;29;20435;-94
2023/03/28 08:58:22;;;;;;;2.92;1.27;;;;;;;;;;4850109;29;20515;-94
2023/03/28 09:04:07;;;;;;;3.50;1.98;;;;;;;;;;4883838;29;20049;-95
2023/03/28 09:06:59;;;;;;;4.40;1.33;;;;;;;;;;4867510;29;20518;-94
2023/03/28 09:09:28;;;;;;;3.35;1.17;;;;;;;;;;4849111;29;20049;-93
2023/03/28 09:12:00;;;;;;;3.60;1.30;;;;;;;;;;4866176;29;20045;-95
2023/03/28 09:14:47;;;;;;;2.90;1.38;;;;;;;;;;4875165;29;20120;-94
2023/03/28 09:29:28;;;;;;;1.85;1.05;;;;;;;;;;4867279;29;20069;-92
2023/03/28 10:08:35;;;;;;;1.92;0.90;;;;;;;;;;5546869;23;20048;-93
2023/03/28 10:11:30;;;;;;;2.47;1.15;;;;;;;;;;4849775;29;20054;-93
2023/03/28 10:56:20;;;;;;;2.03;0.82;;;;;;;;;;4874132;29;20064;-95
2023/03/28 11:02:11;;;;;;;1.73;0.70;;;;;;;;;;4880774;29;20540;-95
2023/03/28 11:04:56;;;;;;;2.75;0.80;;;;;;;;;;4863636;29;20041;-94
2023/03/28 11:10:54;;;;;;;;;;;;;;;;;;;;;
2023/03/28 11:22:33;;;;;;;2.45;1.00;;;;;;;;;;5832821;23;20878;-94
2023/03/28 11:28:39;;;;;;;2.25;1.00;;;;;;;;;;4862169;29;20120;-94
2023/03/28 11:37:45;;;;;;;2.40;1.00;;;;;;;;;;4863812;29;20128;-94
2023/03/28 11:46:16;;;;;;;2.00;0.68;;;;;;;;;;4866242;29;20072;-94
2023/03/28 11:51:46;;;;;;;1.83;0.47;;;;;;;;;;4869808;29;20041;-94
2023/03/28 11:54:40;;;;;;;2.22;0.80;;;;;;;;;;4854964;29;20034;-94
2023/03/28 11:57:28;;;;;;;2.42;0.60;;;;;;;;;;4855040;29;20036;-95
2023/03/28 12:03:18;;;;;;;3.33;0.77;;;;;;;;;;4832768;29;20072;-95
2023/03/28 13:46:41;;;;;;;1.88;0.60;;;;;;;;;;5734244;23;20271;-90
2023/03/28 13:49:13;;;;;;;3.70;0.70;;;;;;;;;;4865403;29;20036;-90
2023/03/28 13:51:58;;;;;;;3.50;0.80;;;;;;;;;;4865788;29;20025;-93
2023/03/28 13:54:33;;;;;;;3.00;0.70;;;;;;;;;;4842941;29;20041;-91
2023/03/28 13:57:31;;;;;;;2.60;0.75;;;;;;;;;;4827780;29;20141;-91
2023/03/28 14:00:08;;;;;;;5.32;0.80;;;;;;;;;;4794012;29;20499;-91
2023/03/28 14:03:09;;;;;;;6.25;0.90;;;;;;;;;;4816724;29;20057;-92
2023/03/28 14:05:56;;;;;;;4.70;1.10;;;;;;;;;;4791268;29;20489;-94
2023/03/28 14:08:25;;;;;;;4.53;0.85;;;;;;;;;;4790206;29;20039;-92
2023/03/28 14:11:39;;;;;;;;;;;;;;;;;;;;;
2023/03/28 14:14:28;;;;;;;3.00;0.98;;;;;;;;;;4805908;29;20053;-91
2023/03/28 14:17:14;;;;;;;6.88;1.00;;;;;;;;;;4752996;30;20111;-92
2023/03/28 14:20:07;;;;;;;5.20;0.90;;;;;;;;;;4822412;29;20052;-91
2023/03/28 14:22:41;;;;;;;3.35;0.90;;;;;;;;;;4825394;29;20057;-92
2023/03/28 14:25:24;;;;;;;;;;;;;;;;;;;;;
2023/03/28 14:28:10;;;;;;;2.25;0.60;;;;;;;;;;4890587;29;20104;-91
2023/03/28 14:30:43;;;;;;;3.85;1.20;;;;;;;;;;4865211;29;20033;-91
2023/03/28 14:33:12;;;;;;;6.05;1.13;;;;;;;;;;4863863;29;20036;-92
2023/03/28 14:35:45;;;;;;;4.35;1.05;;;;;;;;;;4863536;29;20041;-93
2023/03/28 14:38:32;;;;;;;4.13;0.95;;;;;;;;;;4863110;29;20033;-91
2023/03/28 14:41:37;;;;;;;4.00;0.88;;;;;;;;;;4864323;29;20029;-92
2023/03/28 14:44:08;;;;;;;4.88;0.70;;;;;;;;;;4879622;29;20055;-92
2023/03/28 14:46:48;;;;;;;7.13;0.80;;;;;;;;;;4861845;29;20049;-91
2023/03/28 14:49:27;;;;;;;2.00;0.60;;;;;;;;;;4879344;29;20084;-91
2023/03/28 14:52:07;;;;;;;4.72;0.90;;;;;;;;;;4865178;29;20021;-92
2023/03/28 14:54:38;;;;;;;4.70;1.20;;;;;;;;;;4864529;29;20044;-92
2023/03/28 14:57:08;;;;;;;3.45;0.90;;;;;;;;;;4863730;29;20025;-90
2023/03/28 14:59:45;;;;;;;4.95;1.20;;;;;;;;;;4863352;29;20127;-91
2023/03/28 15:02:34;;;;;;;6.10;1.30;;;;;;;;;;4865229;29;20044;-89
2023/03/28 15:05:23;;;;;;;5.90;0.98;;;;;;;;;;4865078;29;20029;-94
2023/03/28 15:11:14;;;;;;;6.07;1.30;;;;;;;;;;4866590;29;20097;-94
2023/03/28 15:17:32;;;;;;;4.45;0.80;;;;;;;;;;4865945;29;20058;-91
2023/03/28 15:19:58;;;;;;;3.78;1.17;;;;;;;;;;4863808;29;20845;-89
2023/03/28 15:22:34;;;;;;;4.78;0.80;;;;;;;;;;4852956;29;20426;-91
2023/03/28 15:40:12;;;;;;;4.97;1.08;;;;;;;;;;4890647;29;20048;-90
2023/03/28 15:43:05;;;;;;;3.58;1.50;;;;;;;;;;4873728;29;20029;-93
2023/03/28 15:49:04;;;;;;;2.15;0.85;;;;;;;;;;4809788;29;20075;-91
2023/03/28 15:51:55;;;;;;;1.75;0.77;;;;;;;;;;4809136;29;20031;-89
2023/03/28 15:54:25;;;;;;;1.40;0.80;;;;;;;;;;4829166;29;20122;-92
2023/03/28 15:56:54;;;;;;;4.80;1.20;;;;;;;;;;4829093;29;20071;-90
2023/03/28 15:59:29;;;;;;;3.13;1.10;;;;;;;;;;4826039;29;20038;-91
2023/03/28 16:02:17;;;;;;;4.25;0.90;;;;;;;;;;4832646;29;20026;-91
2023/03/28 16:05:06;;;;;;;3.33;1.20;;;;;;;;;;4867683;29;20033;-90
2023/03/28 16:13:36;;;;;;;2.92;1.05;;;;;;;;;;4884005;29;20084;-89
2023/03/28 16:16:06;;;;;;;3.65;1.20;;;;;;;;;;4866942;29;20036;-90
2023/03/28 16:18:35;;;;;;;3.28;1.10;;;;;;;;;;4867639;29;20033;-92
2023/03/28 16:21:02;;;;;;;13.27;4.85;;;;;;;;;;4867980;29;20036;-90
2023/03/28 16:23:28;;;;;;;4.32;1.40;;;;;;;;;;4869165;29;20033;-89
2023/03/28 16:25:55;;;;;;;4.05;1.50;;;;;;;;;;4867370;29;20069;-91
2023/03/28 16:28:24;;;;;;;3.70;0.98;;;;;;;;;;4870652;29;20108;-93
2023/03/28 16:30:51;;;;;;;1.90;0.90;;;;;;;;;;4880953;29;20021;-92
2023/03/28 16:33:24;;;;;;;3.10;1.15;;;;;;;;;;4872495;29;20033;-93
2023/03/28 16:35:50;;;;;;;3.60;1.27;;;;;;;;;;4869318;29;20037;-93
2023/03/28 16:38:26;;;;;;;3.88;1.23;;;;;;;;;;4871498;29;20045;-93
2023/03/28 16:40:52;;;;;;;2.47;1.20;;;;;;;;;;4880333;29;20032;-93
2023/03/28 16:43:23;;;;;;;2.97;1.40;;;;;;;;;;4866819;29;20025;-90
2023/03/28 16:45:52;;;;;;;3.53;2.13;;;;;;;;;;4866303;29;20397;-91
2023/03/28 16:48:25;;;;;;;3.80;2.00;;;;;;;;;;4857309;29;20116;-91
2023/03/28 16:51:04;;;;;;;3.75;1.80;;;;;;;;;;4857508;29;20409;-90
2023/03/28 16:53:38;;;;;;;3.80;1.70;;;;;;;;;;4869618;29;20093;-90
2023/03/28 16:56:17;;;;;;;;;;;;;;;;;;;;;
2023/03/28 16:58:50;;;;;;;3.17;1.35;;;;;;;;;;4863507;29;20386;-93
2023/03/28 17:01:25;;;;;;;3.10;1.17;;;;;;;;;;4852592;29;20033;-93
2023/03/28 17:03:57;;;;;;;4.57;1.20;;;;;;;;;;4849210;29;20029;-93
2023/03/28 17:06:24;;;;;;;12.30;4.47;;;;;;;;;;4844084;29;20475;-94
2023/03/28 17:11:51;;;;;;;3.00;1.20;;;;;;;;;;4864512;29;20105;-93
2023/03/28 17:14:17;;;;;;;5.32;1.85;;;;;;;;;;4846632;29;20037;-95
2023/03/28 17:16:46;;;;;;;3.88;1.33;;;;;;;;;;4845789;29;20065;-92
2023/03/28 17:19:18;;;;;;;5.95;2.80;;;;;;;;;;4847652;29;20045;-93
2023/03/28 17:21:52;;;;;;;4.22;1.80;;;;;;;;;;4863534;29;20620;-93
2023/03/28 17:24:23;;;;;;;5.10;2.05;;;;;;;;;;4850308;29;20033;-92
2023/03/28 17:26:55;;;;;;;4.50;1.35;;;;;;;;;;4849096;29;20056;-93
2023/03/28 17:29:28;;;;;;;4.65;1.67;;;;;;;;;;4848354;29;20034;-93
2023/03/28 17:31:57;;;;;;;3.30;1.67;;;;;;;;;;4848702;29;20124;-93
2023/03/28 17:34:23;;;;;;;3.60;1.80;;;;;;;;;;4850068;29;20037;-93
2023/03/28 17:37:02;;;;;;;4.38;1.70;;;;;;;;;;4849542;29;20029;-93
2023/03/28 17:39:32;;;;;;;3.65;1.40;;;;;;;;;;4827481;29;20054;-94
2023/03/28 17:42:10;;;;;;;4.60;1.55;;;;;;;;;;4813424;29;20046;-93
2023/03/28 17:44:36;;;;;;;3.15;1.10;;;;;;;;;;4837022;29;20097;-90
2023/03/28 17:47:19;;;;;;;2.70;0.90;;;;;;;;;;4844958;29;20030;-90
2023/03/28 17:49:54;;;;;;;3.03;1.20;;;;;;;;;;4829749;29;20136;-91
2023/03/28 17:52:29;;;;;;;3.72;1.35;;;;;;;;;;4835018;29;20071;-91
2023/03/28 17:54:58;;;;;;;2.78;1.10;;;;;;;;;;4849424;29;20143;-91
2023/03/28 17:57:24;;;;;;;5.07;1.50;;;;;;;;;;4851867;29;20026;-91
2023/03/28 18:00:00;;;;;;;;;;;;;;;;;;;;;
2023/03/28 18:02:30;;;;;;;2.20;0.90;;;;;;;;;;4863130;29;20039;-91
2023/03/28 18:05:02;;;;;;;4.18;1.17;;;;;;;;;;4846450;29;20038;-93
2023/03/28 18:07:47;;;;;;;2.92;1.20;;;;;;;;;;4846698;29;20075;-92
2023/03/28 18:10:19;;;;;;;2.00;1.02;;;;;;;;;;4858952;29;20558;-95
2023/03/28 18:13:09;;;;;;;2.60;1.08;;;;;;;;;;4866414;29;20037;-93
2023/03/28 18:15:41;;;;;;;2.90;1.15;;;;;;;;;;4831432;29;20044;-92
2023/03/28 18:18:13;;;;;;;2.40;0.90;;;;;;;;;;4865174;29;20120;-92
2023/03/28 18:20:46;;;;;;;3.20;1.20;;;;;;;;;;4849460;29;20124;-93
2023/03/28 18:23:24;;;;;;;3.80;1.20;;;;;;;;;;4846319;29;20041;-92
2023/03/28 18:26:02;;;;;;;2.42;1.10;;;;;;;;;;4844223;29;20028;-91
2023/03/28 18:28:31;;;;;;;2.35;0.80;;;;;;;;;;4845539;29;20033;-93
2023/03/28 18:31:18;;;;;;;3.72;1.33;;;;;;;;;;4846265;29;20029;-93
2023/03/28 18:33:55;;;;;;;2.25;0.80;;;;;;;;;;4845317;29;20045;-92
2023/03/28 18:36:25;;;;;;;2.42;0.95;;;;;;;;;;4846687;29;20038;-93
2023/03/28 18:38:54;;;;;;;6.03;2.70;;;;;;;;;;4846658;29;20395;-93
2023/03/28 18:41:21;;;;;;;12.52;4.47;;;;;;;;;;4846799;29;20073;-93
2023/03/28 18:43:53;;;;;;;14.95;4.53;;;;;;;;;;4862148;29;20093;-93
2023/03/28 18:46:19;;;;;;;25.27;6.40;;;;;;;;;;4846929;29;20033;-94
2023/03/28 18:49:07;;;;;;;41.95;11.90;;;;;;;;;;4871830;29;20025;-91
2023/03/28 19:02:21;;;;;;;56.65;14.77;;;;;;;;;;4965892;23;20079;-94
2023/03/28 19:04:50;;;;;;;13.93;3.20;;;;;;;;;;4863831;29;20033;-92
2023/03/28 19:07:22;;;;;;;9.77;2.70;;;;;;;;;;4895877;23;20057;-95
2023/03/28 19:10:10;;;;;;;;;;;;;;;;;;;;;
2023/03/28 19:12:44;;;;;;;229.95;48.78;;;;;;;;;;4880694;29;20041;-92
2023/03/28 19:15:13;;;;;;;;;;;;;;;;;;4864692;29;20021;-92
2023/03/28 19:17:58;;;;;;;414.25;100.55;;;;;;;;;;4864375;29;19908;-92
2023/03/28 19:20:55;;;;;;;176.77;42.85;;;;;;;;;;4864044;29;20075;-94
2023/03/28 19:24:08;;;;;;;367.73;95.80;;;;;;;;;;4805630;29;20070;-92
2023/03/28 19:26:21;;;;;;;15.50;4.53;;;;;;;;;;4818603;29;20054;-91
2023/03/28 19:35:12;;;;;;;2.45;1.02;;;;;;;;;;4859384;29;20034;-93
2023/03/28 19:37:57;;;;;;;2.88;1.05;;;;;;;;;;4844640;29;20037;-91
2023/03/28 19:40:26;;;;;;;3.10;0.95;;;;;;;;;;4844594;29;20088;-91
2023/03/28 19:43:01;;;;;;;3.05;0.90;;;;;;;;;;4842831;29;20089;-93
2023/03/28 19:45:33;;;;;;;3.97;1.05;;;;;;;;;;4846282;29;20046;-93
2023/03/28 19:51:25;;;;;;;4.25;1.23;;;;;;;;;;4803152;29;20048;-92
2023/03/28 19:53:58;;;;;;;3.33;0.80;;;;;;;;;;4856716;29;20132;-94
2023/03/28 19:56:27;;;;;;;1.47;0.60;;;;;;;;;;4864128;29;20032;-94
2023/03/28 19:58:59;;;;;;;3.00;0.93;;;;;;;;;;4880651;29;20048;-92
2023/03/28 20:01:31;;;;;;;3.33;1.00;;;;;;;;;;4875087;29;20060;-92
2023/03/28 20:07:18;;;;;;;2.75;1.30;;;;;;;;;;4840647;29;20161;-92
2023/03/28 20:09:53;;;;;;;4.38;1.13;;;;;;;;;;4827548;29;20073;-92
2023/03/28 20:12:38;;;;;;;2.92;1.27;;;;;;;;;;4827736;29;20524;-91
2023/03/28 20:18:25;;;;;;;2.65;1.08;;;;;;;;;;4821407;29;20045;-94
2023/03/28 20:21:02;;;;;;;4.35;1.20;;;;;;;;;;4837041;29;20182;-92
2023/03/28 20:23:32;;;;;;;3.45;1.05;;;;;;;;;;4829231;29;20058;-93
2023/03/28 20:26:12;;;;;;;3.90;1.00;;;;;;;;;;4879984;29;20033;-93
2023/03/28 20:28:58;;;;;;;3.58;1.10;;;;;;;;;;4866551;29;20033;-93
2023/03/28 20:31:27;;;;;;;3.13;1.00;;;;;;;;;;4882482;29;20068;-92
2023/03/28 20:33:56;;;;;;;5.10;1.95;;;;;;;;;;4866495;29;20041;-94
2023/03/28 20:36:40;;;;;;;4.35;1.70;;;;;;;;;;4880990;29;20032;-92
2023/03/28 20:39:08;;;;;;;2.70;1.40;;;;;;;;;;4881188;29;20049;-93
2023/03/28 20:44:13;;;;;;;2.78;1.13;;;;;;;;;;4904099;23;20071;-95
2023/03/28 20:46:47;;;;;;;3.55;1.23;;;;;;;;;;4863546;29;20037;-94
2023/03/28 20:49:26;;;;;;;2.97;1.25;;;;;;;;;;4862233;29;20086;-94
2023/03/28 20:51:58;;;;;;;3.78;1.52;;;;;;;;;;4863545;29;20030;-93
2023/03/28 20:54:39;;;;;;;5.22;1.63;;;;;;;;;;4871375;29;20037;-92
2023/03/28 20:57:41;;;;;;;3.58;1.35;;;;;;;;;;4867498;29;20029;-93
2023/03/28 21:00:15;;;;;;;4.30;1.50;;;;;;;;;;4862135;29;20049;-93
2023/03/28 21:02:54;;;;;;;4.13;1.77;;;;;;;;;;4862385;29;20029;-93
2023/03/28 21:05:30;;;;;;;3.75;1.52;;;;;;;;;;4862469;29;20021;-92
2023/03/28 21:10:53;;;;;;;6.00;1.10;;;;;;;;;;4862999;29;20545;-93
2023/03/28 21:13:22;;;;;;;3.05;1.20;;;;;;;;;;4846118;29;20039;-93
2023/03/28 21:15:56;;;;;;;4.43;1.75;;;;;;;;;;4846157;29;20033;-92
2023/03/28 21:18:29;;;;;;;4.80;1.70;;;;;;;;;;4877988;29;20067;-92
2023/03/28 21:20:58;;;;;;;5.13;1.65;;;;;;;;;;4864462;29;20041;-93
2023/03/28 21:23:27;;;;;;;4.35;1.73;;;;;;;;;;4864535;29;20033;-94
2023/03/28 21:25:53;;;;;;;4.78;1.60;;;;;;;;;;4864314;29;20029;-93
2023/03/28 21:28:32;;;;;;;4.47;1.80;;;;;;;;;;4864675;29;20470;-93
2023/03/28 21:31:19;;;;;;;5.53;1.92;;;;;;;;;;4862358;29;20036;-93
2023/03/28 21:33:46;;;;;;;5.28;1.65;;;;;;;;;;4861705;29;20029;-92
2023/03/28 21:44:47;;;;;;;10.75;3.25;;;;;;;;;;4917352;23;20072;-92
2023/03/28 21:47:20;;;;;;;182.05;55.88;;;;;;;;;;4865513;29;20032;-92
2023/03/28 21:49:49;;;;;;;215.75;64.18;;;;;;;;;;4865663;29;20128;-92
2023/03/28 21:52:18;;;;;;;64.13;20.90;;;;;;;;;;4841970;29;20034;-92
2023/03/28 21:54:47;;;;;;;63.60;19.38;;;;;;;;;;4849377;29;20042;-93
2023/03/28 21:57:13;;;;;;;43.53;13.98;;;;;;;;;;4864945;29;20154;-92
2023/03/28 22:02:42;;;;;;;21.15;5.78;;;;;;;;;;4862075;29;20048;-93
2023/03/28 22:05:29;;;;;;;726.33;233.55;;;;;;;;;;4844397;29;20128;-93
2023/03/28 22:08:04;;;;;;;134.15;35.40;;;;;;;;;;4860382;29;20132;-93
2023/03/28 22:10:30;;;;;;;74.85;19.45;;;;;;;;;;4859470;29;20040;-93
2023/03/28 22:13:05;;;;;;;75.13;19.08;;;;;;;;;;4871703;29;20025;-92
2023/03/28 22:15:48;;;;;;;207.93;45.95;;;;;;;;;;4874381;29;20053;-94
2023/03/28 22:18:20;;;;;;;200.25;45.38;;;;;;;;;;4846299;29;20065;-92
2023/03/28 22:20:52;;;;;;;365.00;81.65;;;;;;;;;;4859927;29;20048;-93
2023/03/28 22:23:25;;;;;;;427.95;86.63;;;;;;;;;;4869703;29;20124;-92
2023/03/28 22:25:58;;;;;;;54.53;18.80;;;;;;;;;;4863824;29;20124;-91
2023/03/28 22:28:27;;;;;;;399.63;96.13;;;;;;;;;;4862299;29;20029;-93
2023/03/28 22:30:54;;;;;;;448.38;117.95;;;;;;;;;;4839933;29;20046;-92
2023/03/28 22:33:23;;;;;;;726.05;230.32;;;;;;;;;;4825496;29;20034;-94
2023/03/28 22:35:53;;;;;;;240.57;59.75;;;;;;;;;;4843732;29;20048;-92
2023/03/28 22:38:19;;;;;;;137.63;34.45;;;;;;;;;;4859284;29;20714;-92
2023/03/28 22:40:48;;;;;;;555.25;159.43;;;;;;;;;;4859208;29;20630;-92
2023/03/28 22:43:17;;;;;;;409.25;99.53;;;;;;;;;;4859221;29;20034;-94
2023/03/28 22:45:47;;;;;;;586.88;176.05;;;;;;;;;;4860059;29;20086;-92
2023/03/28 22:48:19;;;;;;;368.08;89.40;;;;;;;;;;4861353;29;20029;-94
2023/03/28 22:50:50;;;;;;;412.13;102.00;;;;;;;;;;4861360;29;20045;-94
2023/03/28 22:53:22;;;;;;;133.80;36.45;;;;;;;;;;4863825;29;20059;-92
2023/03/28 22:55:48;;;;;;;1296.95;470.02;;;;;;;;;;4870801;29;20072;-92
2023/03/28 22:58:21;;;;;;;1999.90;778.13;;;;;;;;;;4863141;29;20030;-92
2023/03/28 23:00:47;;;;;;;1848.18;650.67;;;;;;;;;;4860209;29;20495;-93
2023/03/28 23:03:26;;;;;;;1441.35;524.90;;;;;;;;;;4860840;29;20114;-92
2023/03/28 23:05:53;;;;;;;730.85;240.38;;;;;;;;;;4860397;29;20062;-92
2023/03/28 23:08:22;;;;;;;777.30;271.35;;;;;;;;;;4860652;29;20098;-93
2023/03/28 23:10:51;;;;;;;970.15;361.05;;;;;;;;;;4860198;29;20041;-92
2023/03/28 23:13:29;;;;;;;648.60;224.00;;;;;;;;;;4860323;29;20061;-93
2023/03/28 23:15:58;;;;;;;905.67;340.00;;;;;;;;;;4860478;29;20075;-93
2023/03/28 23:18:33;;;;;;;978.28;361.75;;;;;;;;;;4864199;29;20041;-91
2023/03/28 23:21:08;;;;;;;492.08;158.57;;;;;;;;;;4881587;29;20094;-92
2023/03/28 23:23:41;;;;;;;628.67;230.63;;;;;;;;;;4863963;29;20029;-94
2023/03/28 23:26:10;;;;;;;155.33;44.23;;;;;;;;;;4863030;29;20041;-94
2023/03/28 23:28:39;;;;;;;346.67;93.38;;;;;;;;;;4860479;29;20373;-94
2023/03/28 23:31:17;;;;;;;425.10;123.50;;;;;;;;;;4864134;29;20272;-94
2023/03/28 23:33:55;;;;;;;222.18;64.93;;;;;;;;;;4863888;29;20029;-92
2023/03/28 23:36:29;;;;;;;132.50;38.88;;;;;;;;;;4864129;29;20057;-93
2023/03/28 23:39:01;;;;;;;89.25;28.00;;;;;;;;;;4863173;29;20052;-92
2023/03/28 23:41:30;;;;;;;73.65;24.70;;;;;;;;;;4869510;29;20037;-92
2023/03/28 23:44:03;;;;;;;89.45;26.88;;;;;;;;;;4868115;29;20588;-93
2023/03/28 23:46:29;;;;;;;60.47;21.15;;;;;;;;;;4867729;29;20120;-93
2023/03/28 23:49:10;;;;;;;38.20;14.60;;;;;;;;;;4868335;29;20066;-94
2023/03/28 23:51:42;;;;;;;48.65;16.45;;;;;;;;;;4867632;29;20036;-93
2023/03/28 23:54:09;;;;;;;74.30;27.42;;;;;;;;;;4872001;29;20486;-92
2023/03/28 23:56:35;;;;;;;104.43;35.78;;;;;;;;;;4869967;29;20054;-94
2023/03/28 23:59:10;;;;;;;128.70;38.75;;;;;;;;;;4867817;29;20048;-93
